createdAt,value
2023-04-06T00:01:09.770Z,61
2023-04-06T00:21:16.534Z,62
2023-04-06T00:41:19.280Z,64
2023-04-06T01:01:14.103Z,64
2023-04-06T01:21:25.798Z,62
2023-04-06T01:41:07.778Z,63
2023-04-06T02:01:13.897Z,64
2023-04-06T02:21:08.268Z,63
2023-04-06T02:41:08.701Z,64
2023-04-06T03:00:54.844Z,64
2023-04-06T03:20:52.913Z,64
2023-04-06T03:40:48.264Z,64
2023-04-06T04:01:04.676Z,64
2023-04-06T04:20:50.403Z,65
2023-04-06T04:40:56.430Z,64
2023-04-06T05:01:16.122Z,66
2023-04-06T05:21:18.753Z,66
2023-04-06T05:41:08.685Z,67
2023-04-06T06:01:16.573Z,65
2023-04-06T06:21:18.975Z,69
2023-04-06T06:41:17.293Z,65
2023-04-06T07:01:17.859Z,66
2023-04-06T07:21:09.389Z,66
2023-04-06T07:41:13.084Z,64
2023-04-06T08:01:08.730Z,63
2023-04-06T08:20:52.697Z,61
2023-04-06T08:41:09.660Z,59
2023-04-06T09:01:41.322Z,55
2023-04-06T09:21:39.582Z,54
2023-04-06T09:41:39.736Z,51
2023-04-06T10:22:09.195Z,46
2023-04-06T10:41:16.079Z,47
2023-04-06T11:01:21.752Z,43
2023-04-06T11:21:43.234Z,43
2023-04-06T11:41:14.065Z,42
2023-04-06T12:01:14.524Z,40
2023-04-06T12:21:12.529Z,41
2023-04-06T12:41:21.201Z,33
2023-04-06T13:01:19.249Z,34
2023-04-06T13:21:28.380Z,31
2023-04-06T13:40:51.758Z,31
2023-04-06T14:00:49.543Z,34
2023-04-06T14:21:16.644Z,36
2023-04-06T14:41:10.636Z,36
2023-04-06T15:00:49.020Z,38
2023-04-06T15:20:49.397Z,38
2023-04-06T15:41:19.335Z,37
2023-04-06T16:01:19.071Z,38
2023-04-06T16:21:18.333Z,39
2023-04-06T16:41:18.921Z,40
2023-04-06T17:01:23.541Z,39
2023-04-06T17:21:15.243Z,39
2023-04-06T17:41:13.880Z,41
2023-04-06T18:00:51.073Z,45
2023-04-06T18:20:50.502Z,50
2023-04-06T18:40:52.534Z,49
2023-04-06T19:01:00.731Z,51
2023-04-06T19:21:08.869Z,51
2023-04-06T19:40:50.774Z,52
2023-04-06T20:00:50.411Z,53
2023-04-06T20:20:54.569Z,52
2023-04-06T20:41:03.669Z,54
2023-04-06T21:00:51.746Z,55
2023-04-06T21:20:46.310Z,56
2023-04-06T21:40:47.398Z,57
2023-04-06T22:00:52.625Z,57
2023-04-06T22:20:46.778Z,58
2023-04-06T22:40:50.963Z,58
2023-04-06T23:00:47.785Z,58
2023-04-06T23:21:13.179Z,57
2023-04-06T23:41:20.529Z,58
